RBE weather

Ratanakiri Airport
Ratanakiri, Rotanak Kiri, Cambodia

Public forecast

Using degrees Celsius for public forecast. Weather courtesy of forecast.io.

METAR (pilot weather report)

Report is more than 2 hours old.

Closest report is Pakse International Airport, 109.6 nm (202.9 km) NW. Retrieved 2019/04/22 12:00 UTC (6 hours ago):

VLPS 221200Z 27006KT 9999 SCT020 SCT200 32/22 Q1006 NOSIG

TAF (pilot weather forecast)

Closest forecast is Pakse International Airport, 109.6 nm (202.9 km) NW. Retrieved 2019/04/22 12:00 UTC (6 hours ago):

TAF VLPS 221100Z 2212/2312 14008KT 8000 SCT020 SCT200